createdAt,value
2018-02-15T00:01:48.778Z,94758.31
2018-02-15T00:04:17.185Z,94743.42
2018-02-15T00:06:45.558Z,94744.90
2018-02-15T00:09:14.293Z,94725.38
2018-02-15T00:11:42.661Z,94722.59
2018-02-15T00:14:11.028Z,94703.98
2018-02-15T00:16:39.391Z,94702.77
2018-02-15T00:19:07.766Z,94715.83
2018-02-15T00:21:36.821Z,94714.11
2018-02-15T00:24:05.187Z,94704.70
2018-02-15T00:26:33.558Z,94719.95
2018-02-15T00:29:01.944Z,94701.90
2018-02-15T00:31:30.298Z,94706.50
2018-02-15T00:33:58.719Z,94688.72
2018-02-15T00:36:27.085Z,94723.80
2018-02-15T00:38:55.647Z,94705.94
2018-02-15T00:41:24.026Z,94716.42
2018-02-15T00:43:52.386Z,94744.09
2018-02-15T00:46:20.779Z,94741.55
2018-02-15T00:48:49.153Z,94733.05
2018-02-15T00:51:17.680Z,94745.59
2018-02-15T00:53:46.083Z,94742.17
2018-02-15T00:56:14.610Z,94722.00
2018-02-15T00:58:42.963Z,94740.47
2018-02-15T01:01:11.341Z,94734.55
2018-02-15T01:03:39.709Z,94720.14
2018-02-15T01:06:08.105Z,94718.48
2018-02-15T01:08:36.522Z,94705.73
2018-02-15T01:11:04.891Z,94719.08
2018-02-15T01:13:33.275Z,94721.13
2018-02-15T01:16:01.630Z,94720.65
2018-02-15T01:18:29.996Z,94696.59
2018-02-15T01:20:58.403Z,94706.09
2018-02-15T01:23:26.773Z,94671.67
2018-02-15T01:25:55.149Z,94686.84
2018-02-15T01:28:23.518Z,94690.70
2018-02-15T01:30:51.951Z,94687.16
2018-02-15T01:33:20.327Z,94710.64
2018-02-15T01:35:48.806Z,94661.69
2018-02-15T01:38:17.238Z,94673.53
2018-02-15T01:40:45.610Z,94668.58
2018-02-15T01:43:14.148Z,94673.17
2018-02-15T01:45:42.505Z,94663.16
2018-02-15T01:48:10.892Z,94678.05
2018-02-15T01:50:39.314Z,94651.06
2018-02-15T01:53:07.761Z,94657.06
2018-02-15T01:55:36.126Z,94653.23
2018-02-15T01:58:04.498Z,94632.15
2018-02-15T02:00:32.923Z,94582.19
2018-02-15T02:03:01.287Z,94637.13
2018-02-15T02:05:29.692Z,94637.25
2018-02-15T02:07:58.084Z,94604.27
2018-02-15T02:10:26.480Z,94618.58
2018-02-15T02:12:55.001Z,94610.05
2018-02-15T02:15:23.364Z,94611.49
2018-02-15T02:17:51.793Z,94606.19
2018-02-15T02:20:20.151Z,94606.23
2018-02-15T02:22:48.515Z,94609.56
2018-02-15T02:25:16.977Z,94603.95
2018-02-15T02:27:45.345Z,94606.45
2018-02-15T02:30:13.816Z,94608.51
2018-02-15T02:32:42.241Z,94593.35
2018-02-15T02:35:10.633Z,94596.35
2018-02-15T02:37:39.026Z,94610.28
2018-02-15T02:40:07.395Z,94603.19
2018-02-15T02:42:35.813Z,94588.90
2018-02-15T02:45:04.315Z,94583.56
2018-02-15T02:47:32.910Z,94587.92
2018-02-15T02:50:01.283Z,94590.41
2018-02-15T02:52:29.655Z,94598.56
2018-02-15T02:54:58.059Z,94563.18
2018-02-15T02:57:26.453Z,94568.36
2018-02-15T02:59:54.906Z,94578.24
2018-02-15T03:02:23.291Z,94569.70
2018-02-15T03:04:52.690Z,94560.95
2018-02-15T03:07:21.207Z,94551.03
2018-02-15T03:09:49.583Z,94552.89
2018-02-15T03:12:17.990Z,94556.03
2018-02-15T03:14:46.473Z,94575.73
2018-02-15T03:17:14.920Z,94573.98
2018-02-15T03:19:43.306Z,94556.45
2018-02-15T03:22:11.720Z,94548.75
2018-02-15T03:24:40.092Z,94554.78
2018-02-15T03:27:08.466Z,94530.38
2018-02-15T03:29:36.977Z,94522.11
2018-02-15T03:32:05.374Z,94539.32
2018-02-15T03:34:33.775Z,94522.27
2018-02-15T03:37:02.187Z,94529.55
2018-02-15T03:39:30.562Z,94523.27
2018-02-15T03:41:58.967Z,94536.30
2018-02-15T03:44:27.348Z,94522.97
2018-02-15T03:46:55.823Z,94525.91
2018-02-15T03:49:24.216Z,94531.97
2018-02-15T03:51:52.721Z,94527.05
2018-02-15T03:54:21.138Z,94515.70
2018-02-15T03:56:49.542Z,94521.77
2018-02-15T03:59:17.909Z,94530.50
2018-02-15T04:01:46.279Z,94536.08
2018-02-15T04:04:14.643Z,94532.18
2018-02-15T04:06:43.094Z,94545.90
2018-02-15T04:09:11.471Z,94549.39
2018-02-15T04:11:39.836Z,94538.30
2018-02-15T04:14:08.314Z,94534.36
2018-02-15T04:16:36.704Z,94534.56
2018-02-15T04:19:05.114Z,94525.82
2018-02-15T04:21:33.479Z,94524.39
2018-02-15T04:24:01.861Z,94526.49
2018-02-15T04:26:30.367Z,94533.00
2018-02-15T04:28:58.814Z,94545.14
2018-02-15T04:31:27.231Z,94528.77
2018-02-15T04:33:55.641Z,94534.02
2018-02-15T04:36:24.038Z,94543.61
2018-02-15T04:38:52.400Z,94543.39
2018-02-15T04:41:20.806Z,94553.14
2018-02-15T04:43:49.171Z,94544.94
2018-02-15T04:46:17.655Z,94562.73
2018-02-15T04:48:46.030Z,94578.41
2018-02-15T04:51:14.472Z,94575.79
2018-02-15T04:53:42.850Z,94581.05
2018-02-15T04:56:11.218Z,94587.05
2018-02-15T04:58:39.623Z,94565.18
2018-02-15T05:01:08.002Z,94573.22
2018-02-15T05:03:36.408Z,94573.27
2018-02-15T05:06:04.779Z,94568.72
2018-02-15T05:08:33.153Z,94554.58
2018-02-15T05:11:01.530Z,94557.83
2018-02-15T05:13:29.951Z,94561.23
2018-02-15T05:15:58.367Z,94557.25
2018-02-15T05:18:26.869Z,94566.27
2018-02-15T05:20:55.232Z,94570.14
2018-02-15T05:23:23.602Z,94570.84
2018-02-15T05:25:51.987Z,94555.98
2018-02-15T05:28:20.379Z,94540.94
2018-02-15T05:30:48.795Z,94533.64
2018-02-15T05:33:17.156Z,94528.20
2018-02-15T05:35:45.528Z,94514.25
2018-02-15T05:38:14.013Z,94519.69
2018-02-15T05:40:42.374Z,94526.23
2018-02-15T05:43:10.893Z,94518.78
2018-02-15T05:45:39.300Z,94523.11
2018-02-15T05:48:07.733Z,94513.85
2018-02-15T05:50:47.015Z,94512.22
2018-02-15T05:53:15.437Z,94517.14
2018-02-15T05:55:43.832Z,94513.36
2018-02-15T05:58:12.203Z,94519.12
2018-02-15T06:00:40.707Z,94509.52
2018-02-15T06:03:09.244Z,94506.89
2018-02-15T06:05:37.619Z,94495.41
2018-02-15T06:08:05.985Z,94498.64
2018-02-15T06:10:34.384Z,94517.22
2018-02-15T06:13:02.764Z,94514.80
2018-02-15T06:15:31.192Z,94516.04
2018-02-15T06:17:59.574Z,94513.53
2018-02-15T06:20:28.072Z,94509.07
2018-02-15T06:22:56.448Z,94512.14
2018-02-15T06:25:24.891Z,94497.52
2018-02-15T06:27:53.314Z,94505.64
2018-02-15T06:30:21.823Z,94493.53
2018-02-15T06:32:50.257Z,94490.61
2018-02-15T06:35:18.813Z,94487.03
2018-02-15T06:37:47.371Z,94486.91
2018-02-15T06:40:15.803Z,94479.36
2018-02-15T06:42:44.261Z,94486.09
2018-02-15T06:45:12.683Z,94490.41
2018-02-15T06:47:41.071Z,94476.97
2018-02-15T06:50:09.560Z,94499.65
2018-02-15T06:52:38.101Z,94497.48
2018-02-15T06:55:06.632Z,94486.41
2018-02-15T06:57:35.115Z,94491.95
2018-02-15T07:00:03.531Z,94500.44
2018-02-15T07:02:31.928Z,94482.37
2018-02-15T07:05:00.304Z,94484.84
2018-02-15T07:07:28.781Z,94485.95
2018-02-15T07:09:57.146Z,94493.08
2018-02-15T07:12:25.528Z,94476.36
2018-02-15T07:14:53.981Z,94450.38
2018-02-15T07:17:22.412Z,94471.23
2018-02-15T07:19:50.869Z,94469.67
2018-02-15T07:22:19.296Z,94463.38
2018-02-15T07:24:47.626Z,94462.59
2018-02-15T07:27:15.999Z,94459.28
2018-02-15T07:29:44.365Z,94464.45
2018-02-15T07:32:13.048Z,94463.98
2018-02-15T07:34:41.515Z,94480.07
2018-02-15T07:37:09.966Z,94465.81
2018-02-15T07:39:38.349Z,94472.41
2018-02-15T07:42:06.848Z,94452.69
2018-02-15T07:44:35.215Z,94469.19
2018-02-15T07:47:03.673Z,94460.39
2018-02-15T07:49:32.369Z,94476.36
2018-02-15T07:52:00.756Z,94481.57
2018-02-15T07:54:29.225Z,94457.46
2018-02-15T07:56:57.901Z,94465.20
2018-02-15T07:59:26.285Z,94458.72
2018-02-15T08:01:54.747Z,94451.30
2018-02-15T08:04:23.116Z,94457.91
2018-02-15T08:06:51.579Z,94453.63
2018-02-15T08:09:19.951Z,94448.30
2018-02-15T08:11:48.337Z,94449.52
2018-02-15T08:14:16.773Z,94444.69
2018-02-15T08:16:45.143Z,94445.98
2018-02-15T08:19:13.547Z,94432.28
2018-02-15T08:21:41.927Z,94449.39
2018-02-15T08:24:10.392Z,94433.24
2018-02-15T08:26:38.832Z,94439.31
2018-02-15T08:29:07.325Z,94433.23
2018-02-15T08:31:35.849Z,94436.47
2018-02-15T08:34:04.332Z,94446.13
2018-02-15T08:36:32.772Z,94433.98
2018-02-15T08:39:01.161Z,94427.73
2018-02-15T08:41:29.581Z,94421.98
2018-02-15T08:43:57.949Z,94414.44
2018-02-15T08:46:26.315Z,94421.80
2018-02-15T08:48:54.772Z,94415.75
2018-02-15T08:51:23.241Z,94415.06
2018-02-15T08:53:51.632Z,94420.45
2018-02-15T08:56:19.998Z,94454.76
2018-02-15T08:58:48.362Z,94416.92
2018-02-15T09:01:16.737Z,94436.11
2018-02-15T09:03:45.117Z,94422.44
2018-02-15T09:06:13.502Z,94422.99
2018-02-15T09:08:41.900Z,94430.39
2018-02-15T09:11:10.352Z,94423.91
2018-02-15T09:13:38.733Z,94429.16
2018-02-15T09:16:07.144Z,94424.03
2018-02-15T09:18:35.540Z,94426.27
2018-02-15T09:21:04.026Z,94438.17
2018-02-15T09:23:32.559Z,94407.16
2018-02-15T09:26:00.990Z,94417.86
2018-02-15T09:28:29.757Z,94424.86
2018-02-15T09:30:58.533Z,94417.88
2018-02-15T09:33:27.085Z,94419.98
2018-02-15T09:35:55.575Z,94422.11
2018-02-15T09:38:25.133Z,94417.00
2018-02-15T09:40:53.530Z,94415.64
2018-02-15T09:43:21.916Z,94417.33
2018-02-15T09:45:50.294Z,94401.94
2018-02-15T09:48:18.737Z,94411.30
2018-02-15T09:50:47.497Z,94426.72
2018-02-15T09:53:16.051Z,94418.56
2018-02-15T09:55:44.475Z,94415.56
2018-02-15T09:58:13.097Z,94421.09
2018-02-15T10:00:41.924Z,94427.96
2018-02-15T10:03:11.035Z,94430.70
2018-02-15T10:05:39.857Z,94414.75
2018-02-15T10:08:08.563Z,94405.80
2018-02-15T10:10:37.051Z,94413.52
2018-02-15T10:13:05.647Z,94406.22
2018-02-15T10:15:34.054Z,94417.45
2018-02-15T10:18:02.438Z,94408.20
2018-02-15T10:20:30.808Z,94415.00
2018-02-15T10:22:59.185Z,94406.10
2018-02-15T10:25:27.555Z,94408.95
2018-02-15T10:27:55.921Z,94403.11
2018-02-15T10:30:24.400Z,94414.44
2018-02-15T10:32:53.207Z,94431.89
2018-02-15T10:35:21.752Z,94412.95
2018-02-15T10:37:50.131Z,94413.84
2018-02-15T10:40:18.568Z,94420.00
2018-02-15T10:42:46.959Z,94431.63
2018-02-15T10:45:15.357Z,94443.03
2018-02-15T10:47:43.830Z,94404.98
2018-02-15T10:50:12.319Z,94408.60
2018-02-15T10:52:40.697Z,94415.23
2018-02-15T10:55:09.067Z,94425.86
2018-02-15T10:57:37.430Z,94421.18
2018-02-15T11:00:05.806Z,94414.83
2018-02-15T11:02:34.202Z,94408.34
2018-02-15T11:05:08.133Z,94407.64
2018-02-15T11:07:36.497Z,94420.16
2018-02-15T11:10:04.864Z,94412.13
2018-02-15T11:12:33.248Z,94421.45
2018-02-15T11:15:01.705Z,94417.23
2018-02-15T11:17:30.074Z,94412.98
2018-02-15T11:19:58.472Z,94414.77
2018-02-15T11:22:26.836Z,94405.95
2018-02-15T11:24:55.221Z,94403.53
2018-02-15T11:27:23.604Z,94420.22
2018-02-15T11:29:52.099Z,94420.28
2018-02-15T11:32:23.418Z,94410.95
2018-02-15T11:34:52.084Z,94417.45
2018-02-15T11:37:20.477Z,94412.16
2018-02-15T11:39:48.838Z,94421.33
2018-02-15T11:42:17.203Z,94424.39
2018-02-15T11:44:45.685Z,94419.84
2018-02-15T11:47:14.154Z,94420.66
2018-02-15T11:49:42.613Z,94429.13
2018-02-15T11:52:10.976Z,94423.33
2018-02-15T11:54:39.363Z,94422.73
2018-02-15T11:57:07.734Z,94426.22
2018-02-15T11:59:36.525Z,94414.84
2018-02-15T12:02:04.902Z,94426.77
2018-02-15T12:04:33.294Z,94423.89
2018-02-15T12:07:01.786Z,94424.45
2018-02-15T12:09:30.185Z,94430.70
2018-02-15T12:11:58.633Z,94421.31
2018-02-15T12:14:27.003Z,94423.40
2018-02-15T12:16:55.416Z,94419.34
2018-02-15T12:19:24.493Z,94424.61
2018-02-15T12:21:52.903Z,94412.87
2018-02-15T12:24:21.330Z,94430.17
2018-02-15T12:26:49.706Z,94423.10
2018-02-15T12:29:18.095Z,94416.53
2018-02-15T12:31:46.490Z,94423.45
2018-02-15T12:34:14.989Z,94432.23
2018-02-15T12:36:43.393Z,94427.10
2018-02-15T12:39:11.749Z,94437.31
2018-02-15T12:41:40.189Z,94440.36
2018-02-15T12:44:08.555Z,94440.92
2018-02-15T12:46:37.258Z,94430.48
2018-02-15T12:49:05.666Z,94428.11
2018-02-15T12:51:34.045Z,94436.02
2018-02-15T12:54:02.502Z,94435.41
2018-02-15T12:56:30.868Z,94437.28
2018-02-15T12:58:59.224Z,94432.34
2018-02-15T13:01:27.602Z,94430.87
2018-02-15T13:03:55.972Z,94438.06
2018-02-15T13:06:24.442Z,94437.20
2018-02-15T13:08:52.875Z,94441.00
2018-02-15T13:11:21.348Z,94423.47
2018-02-15T13:13:49.736Z,94424.05
2018-02-15T13:16:29.915Z,94424.89
2018-02-15T13:19:09.961Z,94424.73
2018-02-15T13:21:38.333Z,94415.94
2018-02-15T13:24:06.780Z,94418.03
2018-02-15T13:26:35.164Z,94410.91
2018-02-15T13:29:03.536Z,94414.73
2018-02-15T13:31:32.006Z,94428.84
2018-02-15T13:34:00.409Z,94426.35
2018-02-15T13:36:28.838Z,94424.84
2018-02-15T13:38:57.199Z,94426.53
2018-02-15T13:41:25.559Z,94428.25
2018-02-15T13:43:53.916Z,94431.67
2018-02-15T13:46:22.273Z,94420.61
2018-02-15T13:48:50.642Z,94419.48
2018-02-15T13:51:18.981Z,94433.48
2018-02-15T13:53:47.421Z,94426.39
2018-02-15T13:56:15.794Z,94436.64
2018-02-15T13:58:44.175Z,94441.12
2018-02-15T14:01:12.551Z,94455.91
2018-02-15T14:03:40.920Z,94453.63
2018-02-15T14:06:09.357Z,94453.06
2018-02-15T14:08:38.786Z,94447.27
2018-02-15T14:11:07.156Z,94454.92
2018-02-15T14:13:35.547Z,94462.28
2018-02-15T14:16:04.144Z,94457.18
2018-02-15T14:18:32.604Z,94465.17
2018-02-15T14:21:01.079Z,94460.41
2018-02-15T14:23:29.473Z,94473.88
2018-02-15T14:25:57.906Z,94470.53
2018-02-15T14:28:26.266Z,94462.59
2018-02-15T14:30:54.722Z,94460.50
2018-02-15T14:33:23.093Z,94464.92
2018-02-15T14:35:51.455Z,94464.97
2018-02-15T14:38:19.896Z,94470.34
2018-02-15T14:40:48.324Z,94473.73
2018-02-15T14:43:27.389Z,94482.07
2018-02-15T14:45:55.867Z,94486.06
2018-02-15T14:48:24.243Z,94486.50
2018-02-15T14:50:54.430Z,94496.24
2018-02-15T14:53:22.905Z,94494.88
2018-02-15T14:55:51.363Z,94489.23
2018-02-15T14:58:19.737Z,94486.09
2018-02-15T15:00:48.130Z,94495.44
2018-02-15T15:03:16.495Z,94496.45
2018-02-15T15:05:44.871Z,94494.66
2018-02-15T15:08:13.311Z,94492.29
2018-02-15T15:10:41.678Z,94489.27
2018-02-15T15:13:10.183Z,94492.78
2018-02-15T15:15:38.554Z,94493.13
2018-02-15T15:18:07.023Z,94497.77
2018-02-15T15:20:35.494Z,94496.43
2018-02-15T15:23:03.884Z,94500.34
2018-02-15T15:25:32.290Z,94503.94
2018-02-15T15:28:00.770Z,94504.91
2018-02-15T15:30:29.246Z,94503.51
2018-02-15T15:32:57.598Z,94511.09
2018-02-15T15:35:25.996Z,94506.56
2018-02-15T15:37:54.374Z,94512.91
2018-02-15T15:40:22.722Z,94513.28
2018-02-15T15:42:51.303Z,94510.16
2018-02-15T15:45:19.678Z,94510.81
2018-02-15T15:47:48.155Z,94519.83
2018-02-15T15:50:16.563Z,94534.83
2018-02-15T15:52:45.033Z,94534.14
2018-02-15T15:55:13.540Z,94541.67
2018-02-15T15:57:41.903Z,94539.93
2018-02-15T16:00:10.265Z,94546.64
2018-02-15T16:02:38.650Z,94537.95
2018-02-15T16:05:07.127Z,94555.23
2018-02-15T16:07:35.588Z,94541.67
2018-02-15T16:10:03.948Z,94544.80
2018-02-15T16:12:32.415Z,94548.70
2018-02-15T16:15:00.784Z,94541.92
2018-02-15T16:17:29.234Z,94545.73
2018-02-15T16:19:57.695Z,94550.67
2018-02-15T16:22:27.129Z,94558.20
2018-02-15T16:24:56.536Z,94553.00
2018-02-15T16:27:25.282Z,94561.29
2018-02-15T16:29:53.688Z,94567.55
2018-02-15T16:32:22.039Z,94573.33
2018-02-15T16:34:50.439Z,94593.23
2018-02-15T16:37:18.923Z,94593.27
2018-02-15T16:39:47.280Z,94597.50
2018-02-15T16:42:15.803Z,94600.60
2018-02-15T16:44:44.201Z,94598.61
2018-02-15T16:47:12.567Z,94609.44
2018-02-15T16:49:40.918Z,94606.80
2018-02-15T16:52:09.307Z,94603.98
2018-02-15T16:54:37.743Z,94599.30
2018-02-15T16:57:06.090Z,94610.81
2018-02-15T16:59:34.455Z,94603.56
2018-02-15T17:02:03.209Z,94609.37
2018-02-15T17:04:31.718Z,94608.84
2018-02-15T17:07:00.200Z,94619.09
2018-02-15T17:09:28.676Z,94619.21
2018-02-15T17:11:57.045Z,94627.39
2018-02-15T17:14:25.412Z,94632.80
2018-02-15T17:16:53.799Z,94632.94
2018-02-15T17:19:22.338Z,94641.63
2018-02-15T17:21:50.802Z,94639.75
2018-02-15T17:24:19.197Z,94641.75
2018-02-15T17:26:47.693Z,94651.44
2018-02-15T17:29:16.079Z,94651.59
2018-02-15T17:31:44.630Z,94648.01
2018-02-15T17:34:13.938Z,94659.73
2018-02-15T17:36:42.332Z,94658.30
2018-02-15T17:39:10.693Z,94653.50
2018-02-15T17:41:39.068Z,94658.23
2018-02-15T17:44:07.528Z,94646.73
2018-02-15T17:46:35.878Z,94657.03
2018-02-15T17:49:04.235Z,94657.77
2018-02-15T17:51:32.585Z,94657.39
2018-02-15T17:54:00.948Z,94654.36
2018-02-15T17:56:29.388Z,94661.51
2018-02-15T17:58:57.869Z,94661.59
2018-02-15T18:01:26.227Z,94662.67
2018-02-15T18:03:54.752Z,94661.12
2018-02-15T18:06:23.108Z,94671.02
2018-02-15T18:08:52.380Z,94683.28
2018-02-15T18:11:20.776Z,94693.01
2018-02-15T18:13:49.165Z,94698.30
2018-02-15T18:16:17.560Z,94705.70
2018-02-15T18:18:45.938Z,94707.77
2018-02-15T18:21:14.489Z,94712.19
2018-02-15T18:23:42.872Z,94717.53
2018-02-15T18:26:11.234Z,94713.55
2018-02-15T18:28:39.626Z,94710.95
2018-02-15T18:31:07.993Z,94706.97
2018-02-15T18:33:36.504Z,94706.47
2018-02-15T18:36:04.865Z,94714.54
2018-02-15T18:38:33.243Z,94719.13
2018-02-15T18:41:01.713Z,94724.31
2018-02-15T18:43:30.403Z,94722.52
2018-02-15T18:45:58.956Z,94722.05
2018-02-15T18:48:27.318Z,94730.75
2018-02-15T18:50:55.755Z,94720.58
2018-02-15T18:53:24.116Z,94727.41
2018-02-15T18:55:52.485Z,94722.55
2018-02-15T18:58:21.269Z,94718.83
2018-02-15T19:00:49.701Z,94722.61
2018-02-15T19:03:18.084Z,94717.69
2018-02-15T19:05:46.467Z,94726.94
2018-02-15T19:08:14.876Z,94727.78
2018-02-15T19:10:43.543Z,94727.86
2018-02-15T19:16:07.207Z,94727.45
2018-02-15T19:18:35.572Z,94732.22
2018-02-15T19:21:04.044Z,94735.40
2018-02-15T19:23:32.510Z,94740.00
2018-02-15T19:26:00.955Z,94735.86
2018-02-15T19:28:29.330Z,94740.55
2018-02-15T19:30:57.715Z,94742.85
2018-02-15T19:33:26.209Z,94750.34
2018-02-15T19:35:54.772Z,94755.71
2018-02-15T19:38:23.161Z,94761.37
2018-02-15T19:40:51.576Z,94761.45
2018-02-15T19:43:19.974Z,94769.61
2018-02-15T19:45:48.481Z,94772.84
2018-02-15T19:48:16.854Z,94775.20
2018-02-15T19:50:45.270Z,94769.72
2018-02-15T19:53:13.716Z,94764.77
2018-02-15T19:55:42.206Z,94761.19
2018-02-15T19:58:10.713Z,94770.02
2018-02-15T20:00:39.110Z,94757.50
2018-02-15T20:03:07.532Z,94763.26
2018-02-15T20:05:35.940Z,94761.21
2018-02-15T20:08:04.429Z,94766.27
2018-02-15T20:10:32.946Z,94770.94
2018-02-15T20:13:01.335Z,94772.03
2018-02-15T20:18:27.009Z,94772.39
2018-02-15T20:20:55.479Z,94770.20
2018-02-15T20:23:23.920Z,94760.18
2018-02-15T20:25:58.080Z,94767.56
2018-02-15T20:28:26.971Z,94776.39
2018-02-15T20:30:55.420Z,94776.05
2018-02-15T20:33:23.810Z,94775.23
2018-02-15T20:35:52.199Z,94779.61
2018-02-15T20:38:26.371Z,94786.23
2018-02-15T20:40:54.787Z,94790.05
2018-02-15T20:43:23.189Z,94784.19
2018-02-15T20:45:51.598Z,94791.19
2018-02-15T20:48:20.134Z,94789.59
2018-02-15T20:50:54.374Z,94800.62
2018-02-15T20:53:28.527Z,94808.25
2018-02-15T20:55:56.937Z,94813.34
2018-02-15T20:58:25.466Z,94811.94
2018-02-15T21:00:53.952Z,94807.19
2018-02-15T21:03:22.389Z,94816.92
2018-02-15T21:05:50.808Z,94825.86
2018-02-15T21:08:19.298Z,94834.91
2018-02-15T21:10:47.718Z,94833.41
2018-02-15T21:13:16.186Z,94832.58
2018-02-15T21:15:44.598Z,94828.70
2018-02-15T21:18:13.034Z,94827.97
2018-02-15T21:20:41.468Z,94836.14
2018-02-15T21:23:09.887Z,94834.60
2018-02-15T21:25:38.355Z,94844.66
2018-02-15T21:28:06.764Z,94839.78
2018-02-15T21:30:35.307Z,94837.97
2018-02-15T21:33:03.712Z,94843.86
2018-02-15T21:35:32.284Z,94848.20
2018-02-15T21:38:00.691Z,94848.75
2018-02-15T21:40:29.127Z,94856.03
2018-02-15T21:42:57.545Z,94867.69
2018-02-15T21:45:25.922Z,94866.08
2018-02-15T21:47:54.513Z,94884.41
2018-02-15T21:50:23.049Z,94883.33
2018-02-15T21:52:51.480Z,94885.50
2018-02-15T21:55:20.264Z,94886.05
2018-02-15T21:57:51.398Z,94894.75
2018-02-15T22:00:20.031Z,94902.51
2018-02-15T22:02:48.463Z,94897.30
2018-02-15T22:05:16.971Z,94902.05
2018-02-15T22:07:45.435Z,94906.97
2018-02-15T22:10:13.886Z,94904.39
2018-02-15T22:12:42.347Z,94910.67
2018-02-15T22:15:10.966Z,94920.94
2018-02-15T22:17:39.453Z,94918.48
2018-02-15T22:20:07.957Z,94921.88
2018-02-15T22:22:36.675Z,94925.37
2018-02-15T22:25:05.148Z,94924.96
2018-02-15T22:27:33.927Z,94928.16
2018-02-15T22:30:02.384Z,94932.34
2018-02-15T22:32:30.887Z,94936.41
2018-02-15T22:34:59.342Z,94945.47
2018-02-15T22:37:27.769Z,94945.63
2018-02-15T22:39:56.155Z,94950.50
2018-02-15T22:42:24.611Z,94947.70
2018-02-15T22:44:53.020Z,94952.86
2018-02-15T22:47:21.415Z,94957.78
2018-02-15T22:49:49.805Z,94959.98
2018-02-15T22:52:18.291Z,94956.03
2018-02-15T22:54:46.837Z,94958.85
2018-02-15T22:57:15.249Z,94963.74
2018-02-15T22:59:44.248Z,94971.52
2018-02-15T23:02:13.466Z,94966.84
2018-02-15T23:04:41.873Z,94966.61
2018-02-15T23:07:10.363Z,94964.83
2018-02-15T23:09:38.761Z,94967.99
2018-02-15T23:12:07.139Z,94971.78
2018-02-15T23:14:36.444Z,94966.52
2018-02-15T23:17:04.852Z,94975.52
2018-02-15T23:19:33.263Z,94977.73
2018-02-15T23:22:01.687Z,94978.87
2018-02-15T23:24:30.143Z,94980.81
2018-02-15T23:26:58.544Z,94986.92
2018-02-15T23:29:26.948Z,94984.95
2018-02-15T23:31:55.340Z,94983.63
2018-02-15T23:34:23.702Z,94982.34
2018-02-15T23:36:52.150Z,94985.98
2018-02-15T23:39:20.518Z,94991.63
2018-02-15T23:41:49.007Z,94993.23
2018-02-15T23:44:17.382Z,94997.81
2018-02-15T23:46:45.772Z,94993.23
2018-02-15T23:49:14.191Z,94994.42
2018-02-15T23:51:42.602Z,94999.95
2018-02-15T23:54:11.060Z,94997.38
2018-02-15T23:56:39.543Z,94997.05
2018-02-15T23:59:08.011Z,94999.34
